Hawick, United Kingdom
Current Conditions -  °F | °C
As of 12:50 PM on Friday 19 Dec 2014 (Local Time) from EGOM Reporting Station
Broken Clouds Broken Clouds  
Wind Chill: 28°   Ceiling: 3700
Heat Index: 39°   Visibility: 6mi
Dew Point: 37°   Wind: 24mph
Humidity: 93%   Direction: 250°WSW
Pressure: 29.68"   Gusts: 38mph
Location:  55.42°N, 2.79°W
Report Text: EGOM 191250Z AUTO 25021G33KT 9999 FEW011/// BKN037/// 04/03 Q1005 RERA
Loading
Personal Weather Stations






























Interactive Weather Map New forecast layout! Learn more

10-Day Weather Forecast

Advertisements
Track Severe Weather on mobile